sensor_id;sensor_type;location;lat;lon;timestamp;P1;durP1;ratioP1;P2;durP2;ratioP2
7191;SDS011;3637;51.494;11.958;2024-01-10T00:02:47;38.67;;;16.80;;
7191;SDS011;3637;51.494;11.958;2024-01-10T00:05:49;43.93;;;20.37;;
7191;SDS011;3637;51.494;11.958;2024-01-10T00:14:55;49.80;;;26.13;;
7191;SDS011;3637;51.494;11.958;2024-01-10T00:18:00;51.25;;;27.95;;
7191;SDS011;3637;51.494;11.958;2024-01-10T00:21:02;39.87;;;20.80;;
7191;SDS011;3637;51.494;11.958;2024-01-10T00:24:04;40.80;;;18.83;;
7191;SDS011;3637;51.494;11.958;2024-01-10T00:27:06;37.27;;;19.07;;
7191;SDS011;3637;51.494;11.958;2024-01-10T00:30:11;43.70;;;19.10;;
7191;SDS011;3637;51.494;11.958;2024-01-10T00:33:13;35.80;;;18.13;;
7191;SDS011;3637;51.494;11.958;2024-01-10T00:36:15;46.33;;;20.97;;
7191;SDS011;3637;51.494;11.958;2024-01-10T00:39:19;39.93;;;18.67;;
7191;SDS011;3637;51.494;11.958;2024-01-10T00:42:21;35.83;;;18.33;;
7191;SDS011;3637;51.494;11.958;2024-01-10T00:45:24;38.23;;;18.23;;
7191;SDS011;3637;51.494;11.958;2024-01-10T00:48:28;41.43;;;18.10;;
7191;SDS011;3637;51.494;11.958;2024-01-10T00:51:30;40.93;;;19.23;;
7191;SDS011;3637;51.494;11.958;2024-01-10T00:54:32;35.47;;;17.43;;
7191;SDS011;3637;51.494;11.958;2024-01-10T00:57:34;41.80;;;17.90;;
7191;SDS011;3637;51.494;11.958;2024-01-10T01:00:37;41.60;;;19.27;;
7191;SDS011;3637;51.494;11.958;2024-01-10T01:03:39;37.03;;;17.93;;
7191;SDS011;3637;51.494;11.958;2024-01-10T01:06:41;38.97;;;18.83;;
7191;SDS011;3637;51.494;11.958;2024-01-10T01:09:43;37.37;;;19.23;;
7191;SDS011;3637;51.494;11.958;2024-01-10T01:12:45;38.37;;;19.27;;
7191;SDS011;3637;51.494;11.958;2024-01-10T01:15:48;43.87;;;19.47;;
7191;SDS011;3637;51.494;11.958;2024-01-10T01:18:50;43.07;;;18.87;;
7191;SDS011;3637;51.494;11.958;2024-01-10T01:21:52;38.97;;;17.73;;
7191;SDS011;3637;51.494;11.958;2024-01-10T01:24:54;38.77;;;18.73;;
7191;SDS011;3637;51.494;11.958;2024-01-10T01:27:56;39.57;;;17.57;;
7191;SDS011;3637;51.494;11.958;2024-01-10T01:30:59;45.20;;;17.67;;
7191;SDS011;3637;51.494;11.958;2024-01-10T01:34:01;43.07;;;19.97;;
7191;SDS011;3637;51.494;11.958;2024-01-10T01:37:03;42.37;;;19.20;;
7191;SDS011;3637;51.494;11.958;2024-01-10T01:40:06;39.07;;;18.10;;
7191;SDS011;3637;51.494;11.958;2024-01-10T01:43:18;42.33;;;19.77;;
7191;SDS011;3637;51.494;11.958;2024-01-10T01:46:23;42.20;;;19.67;;
7191;SDS011;3637;51.494;11.958;2024-01-10T01:49:25;42.90;;;19.43;;
7191;SDS011;3637;51.494;11.958;2024-01-10T01:52:27;48.70;;;20.67;;
7191;SDS011;3637;51.494;11.958;2024-01-10T01:55:31;45.97;;;19.90;;
7191;SDS011;3637;51.494;11.958;2024-01-10T01:58:43;42.97;;;20.07;;
7191;SDS011;3637;51.494;11.958;2024-01-10T02:02:16;41.67;;;19.57;;
7191;SDS011;3637;51.494;11.958;2024-01-10T02:05:21;43.10;;;20.47;;
7191;SDS011;3637;51.494;11.958;2024-01-10T02:08:23;37.20;;;19.47;;
7191;SDS011;3637;51.494;11.958;2024-01-10T02:11:27;44.03;;;19.70;;
7191;SDS011;3637;51.494;11.958;2024-01-10T02:14:29;45.70;;;21.03;;
7191;SDS011;3637;51.494;11.958;2024-01-10T02:17:32;42.40;;;20.53;;
7191;SDS011;3637;51.494;11.958;2024-01-10T02:20:34;39.33;;;19.07;;
7191;SDS011;3637;51.494;11.958;2024-01-10T02:23:36;41.73;;;19.20;;
7191;SDS011;3637;51.494;11.958;2024-01-10T02:26:40;39.37;;;19.83;;
7191;SDS011;3637;51.494;11.958;2024-01-10T02:29:42;45.33;;;19.17;;
7191;SDS011;3637;51.494;11.958;2024-01-10T02:32:43;38.37;;;19.40;;
7191;SDS011;3637;51.494;11.958;2024-01-10T02:35:45;46.77;;;20.47;;
7191;SDS011;3637;51.494;11.958;2024-01-10T02:38:47;40.73;;;19.93;;
7191;SDS011;3637;51.494;11.958;2024-01-10T02:41:51;41.93;;;21.33;;
7191;SDS011;3637;51.494;11.958;2024-01-10T02:44:53;41.37;;;18.77;;
7191;SDS011;3637;51.494;11.958;2024-01-10T02:47:55;39.67;;;18.17;;
7191;SDS011;3637;51.494;11.958;2024-01-10T02:50:57;37.30;;;18.13;;
7191;SDS011;3637;51.494;11.958;2024-01-10T02:53:59;48.17;;;20.17;;
7191;SDS011;3637;51.494;11.958;2024-01-10T02:57:02;44.30;;;20.07;;
7191;SDS011;3637;51.494;11.958;2024-01-10T03:00:05;46.23;;;21.20;;
7191;SDS011;3637;51.494;11.958;2024-01-10T03:03:08;41.83;;;20.47;;
7191;SDS011;3637;51.494;11.958;2024-01-10T03:06:10;40.03;;;19.93;;
7191;SDS011;3637;51.494;11.958;2024-01-10T03:09:12;45.27;;;19.30;;
7191;SDS011;3637;51.494;11.958;2024-01-10T03:12:15;40.50;;;20.20;;
7191;SDS011;3637;51.494;11.958;2024-01-10T03:15:17;46.33;;;21.83;;
7191;SDS011;3637;51.494;11.958;2024-01-10T03:18:28;45.20;;;21.07;;
7191;SDS011;3637;51.494;11.958;2024-01-10T03:21:33;35.40;;;19.20;;
7191;SDS011;3637;51.494;11.958;2024-01-10T03:24:35;40.90;;;20.53;;
7191;SDS011;3637;51.494;11.958;2024-01-10T03:27:38;39.33;;;19.00;;
7191;SDS011;3637;51.494;11.958;2024-01-10T03:30:40;39.93;;;20.07;;
7191;SDS011;3637;51.494;11.958;2024-01-10T03:33:42;41.77;;;20.73;;
7191;SDS011;3637;51.494;11.958;2024-01-10T03:36:44;46.23;;;20.97;;
7191;SDS011;3637;51.494;11.958;2024-01-10T03:39:49;46.07;;;22.07;;
7191;SDS011;3637;51.494;11.958;2024-01-10T03:42:52;43.23;;;19.60;;
7191;SDS011;3637;51.494;11.958;2024-01-10T03:45:57;44.23;;;19.70;;
7191;SDS011;3637;51.494;11.958;2024-01-10T03:49:04;45.37;;;20.20;;
7191;SDS011;3637;51.494;11.958;2024-01-10T03:52:06;46.60;;;21.50;;
7191;SDS011;3637;51.494;11.958;2024-01-10T03:55:08;44.13;;;19.77;;
7191;SDS011;3637;51.494;11.958;2024-01-10T03:58:12;48.70;;;20.10;;
7191;SDS011;3637;51.494;11.958;2024-01-10T04:01:14;43.33;;;20.30;;
7191;SDS011;3637;51.494;11.958;2024-01-10T04:04:16;41.33;;;21.07;;
7191;SDS011;3637;51.494;11.958;2024-01-10T04:07:20;48.37;;;21.10;;
7191;SDS011;3637;51.494;11.958;2024-01-10T04:10:23;41.80;;;20.40;;
7191;SDS011;3637;51.494;11.958;2024-01-10T04:13:26;45.20;;;21.30;;
7191;SDS011;3637;51.494;11.958;2024-01-10T04:16:28;43.40;;;19.80;;
7191;SDS011;3637;51.494;11.958;2024-01-10T04:25:34;42.13;;;20.10;;
7191;SDS011;3637;51.494;11.958;2024-01-10T04:28:37;42.17;;;21.67;;
7191;SDS011;3637;51.494;11.958;2024-01-10T04:31:41;46.50;;;21.33;;
7191;SDS011;3637;51.494;11.958;2024-01-10T04:34:43;47.77;;;23.23;;
7191;SDS011;3637;51.494;11.958;2024-01-10T04:37:47;51.23;;;21.33;;
7191;SDS011;3637;51.494;11.958;2024-01-10T04:40:51;42.23;;;20.47;;
7191;SDS011;3637;51.494;11.958;2024-01-10T04:43:57;46.13;;;21.70;;
7191;SDS011;3637;51.494;11.958;2024-01-10T04:46:59;45.13;;;20.27;;
7191;SDS011;3637;51.494;11.958;2024-01-10T04:50:01;41.40;;;20.30;;
7191;SDS011;3637;51.494;11.958;2024-01-10T04:53:07;43.77;;;20.53;;
7191;SDS011;3637;51.494;11.958;2024-01-10T04:56:09;46.70;;;20.83;;
7191;SDS011;3637;51.494;11.958;2024-01-10T04:59:13;43.07;;;19.80;;
7191;SDS011;3637;51.494;11.958;2024-01-10T05:02:15;46.43;;;19.53;;
7191;SDS011;3637;51.494;11.958;2024-01-10T05:05:22;50.23;;;21.43;;
7191;SDS011;3637;51.494;11.958;2024-01-10T05:08:26;46.93;;;20.73;;
7191;SDS011;3637;51.494;11.958;2024-01-10T05:11:28;46.33;;;21.23;;
7191;SDS011;3637;51.494;11.958;2024-01-10T05:14:31;46.87;;;21.07;;
7191;SDS011;3637;51.494;11.958;2024-01-10T05:17:35;49.43;;;22.53;;
7191;SDS011;3637;51.494;11.958;2024-01-10T05:20:37;42.57;;;21.13;;
7191;SDS011;3637;51.494;11.958;2024-01-10T05:23:39;46.50;;;21.73;;
7191;SDS011;3637;51.494;11.958;2024-01-10T05:26:41;48.67;;;22.20;;
7191;SDS011;3637;51.494;11.958;2024-01-10T05:29:46;44.97;;;21.33;;
7191;SDS011;3637;51.494;11.958;2024-01-10T05:32:49;44.97;;;21.70;;
7191;SDS011;3637;51.494;11.958;2024-01-10T05:35:58;50.10;;;21.20;;
7191;SDS011;3637;51.494;11.958;2024-01-10T05:39:03;44.33;;;21.83;;
7191;SDS011;3637;51.494;11.958;2024-01-10T05:42:06;41.00;;;19.87;;
7191;SDS011;3637;51.494;11.958;2024-01-10T05:45:14;54.03;;;21.93;;
7191;SDS011;3637;51.494;11.958;2024-01-10T05:48:18;45.20;;;20.60;;
7191;SDS011;3637;51.494;11.958;2024-01-10T05:51:20;45.20;;;20.87;;
7191;SDS011;3637;51.494;11.958;2024-01-10T05:54:23;41.43;;;20.60;;
7191;SDS011;3637;51.494;11.958;2024-01-10T05:57:35;46.70;;;20.50;;
7191;SDS011;3637;51.494;11.958;2024-01-10T06:00:40;43.17;;;19.83;;
7191;SDS011;3637;51.494;11.958;2024-01-10T06:03:42;42.07;;;19.40;;
7191;SDS011;3637;51.494;11.958;2024-01-10T06:06:45;53.00;;;21.93;;
7191;SDS011;3637;51.494;11.958;2024-01-10T06:09:47;54.63;;;23.83;;
7191;SDS011;3637;51.494;11.958;2024-01-10T06:12:51;166.73;;;55.13;;
7191;SDS011;3637;51.494;11.958;2024-01-10T06:15:59;47.80;;;22.10;;
7191;SDS011;3637;51.494;11.958;2024-01-10T06:19:02;44.07;;;21.20;;
7191;SDS011;3637;51.494;11.958;2024-01-10T06:22:11;42.77;;;21.00;;
7191;SDS011;3637;51.494;11.958;2024-01-10T06:25:16;54.17;;;21.63;;
7191;SDS011;3637;51.494;11.958;2024-01-10T06:28:23;47.93;;;20.80;;
7191;SDS011;3637;51.494;11.958;2024-01-10T06:31:34;48.43;;;23.17;;
7191;SDS011;3637;51.494;11.958;2024-01-10T06:34:36;48.27;;;22.40;;
7191;SDS011;3637;51.494;11.958;2024-01-10T06:37:45;45.17;;;23.23;;
7191;SDS011;3637;51.494;11.958;2024-01-10T06:40:47;48.63;;;21.77;;
7191;SDS011;3637;51.494;11.958;2024-01-10T06:43:51;45.70;;;22.43;;
7191;SDS011;3637;51.494;11.958;2024-01-10T06:46:54;52.43;;;22.57;;
7191;SDS011;3637;51.494;11.958;2024-01-10T06:49:56;53.50;;;22.63;;
7191;SDS011;3637;51.494;11.958;2024-01-10T06:52:58;49.37;;;22.63;;
7191;SDS011;3637;51.494;11.958;2024-01-10T06:56:07;56.00;;;23.83;;
7191;SDS011;3637;51.494;11.958;2024-01-10T06:59:12;55.43;;;25.13;;
7191;SDS011;3637;51.494;11.958;2024-01-10T07:02:17;56.57;;;24.50;;
7191;SDS011;3637;51.494;11.958;2024-01-10T07:05:19;48.80;;;24.20;;
7191;SDS011;3637;51.494;11.958;2024-01-10T07:08:25;48.70;;;23.20;;
7191;SDS011;3637;51.494;11.958;2024-01-10T07:11:27;56.37;;;21.73;;
7191;SDS011;3637;51.494;11.958;2024-01-10T07:14:31;45.70;;;20.40;;
7191;SDS011;3637;51.494;11.958;2024-01-10T07:17:38;48.47;;;22.03;;
7191;SDS011;3637;51.494;11.958;2024-01-10T07:20:42;56.33;;;23.03;;
7191;SDS011;3637;51.494;11.958;2024-01-10T07:23:47;47.80;;;22.47;;
7191;SDS011;3637;51.494;11.958;2024-01-10T07:26:51;52.90;;;23.40;;
7191;SDS011;3637;51.494;11.958;2024-01-10T07:29:53;52.30;;;23.40;;
7191;SDS011;3637;51.494;11.958;2024-01-10T07:33:02;51.27;;;21.80;;
7191;SDS011;3637;51.494;11.958;2024-01-10T07:36:05;56.23;;;24.40;;
7191;SDS011;3637;51.494;11.958;2024-01-10T07:39:08;53.37;;;24.90;;
7191;SDS011;3637;51.494;11.958;2024-01-10T07:42:21;49.07;;;22.67;;
7191;SDS011;3637;51.494;11.958;2024-01-10T07:45:23;52.90;;;23.80;;
7191;SDS011;3637;51.494;11.958;2024-01-10T07:48:27;52.03;;;25.03;;
7191;SDS011;3637;51.494;11.958;2024-01-10T07:51:31;46.87;;;22.70;;
7191;SDS011;3637;51.494;11.958;2024-01-10T07:54:34;45.20;;;21.37;;
7191;SDS011;3637;51.494;11.958;2024-01-10T07:57:37;50.23;;;23.93;;
7191;SDS011;3637;51.494;11.958;2024-01-10T08:00:43;46.77;;;22.03;;
7191;SDS011;3637;51.494;11.958;2024-01-10T08:03:53;49.00;;;22.70;;
7191;SDS011;3637;51.494;11.958;2024-01-10T08:06:57;52.83;;;23.67;;
7191;SDS011;3637;51.494;11.958;2024-01-10T08:10:00;51.90;;;24.60;;
7191;SDS011;3637;51.494;11.958;2024-01-10T08:13:02;42.30;;;22.43;;
7191;SDS011;3637;51.494;11.958;2024-01-10T08:16:06;59.80;;;24.73;;
7191;SDS011;3637;51.494;11.958;2024-01-10T08:22:46;55.90;;;24.47;;
7191;SDS011;3637;51.494;11.958;2024-01-10T08:25:52;56.10;;;24.30;;
7191;SDS011;3637;51.494;11.958;2024-01-10T08:28:55;49.67;;;23.80;;
7191;SDS011;3637;51.494;11.958;2024-01-10T08:32:01;53.60;;;24.10;;
7191;SDS011;3637;51.494;11.958;2024-01-10T08:35:07;55.20;;;24.50;;
7191;SDS011;3637;51.494;11.958;2024-01-10T08:38:10;56.40;;;24.57;;
7191;SDS011;3637;51.494;11.958;2024-01-10T08:41:14;54.07;;;23.97;;
7191;SDS011;3637;51.494;11.958;2024-01-10T08:44:16;57.03;;;26.20;;
7191;SDS011;3637;51.494;11.958;2024-01-10T08:47:20;52.10;;;24.37;;
7191;SDS011;3637;51.494;11.958;2024-01-10T08:50:38;59.40;;;25.40;;
7191;SDS011;3637;51.494;11.958;2024-01-10T08:53:43;51.27;;;23.13;;
7191;SDS011;3637;51.494;11.958;2024-01-10T08:56:45;50.03;;;24.70;;
7191;SDS011;3637;51.494;11.958;2024-01-10T08:59:47;55.50;;;24.40;;
7191;SDS011;3637;51.494;11.958;2024-01-10T09:02:52;61.30;;;25.00;;
7191;SDS011;3637;51.494;11.958;2024-01-10T09:06:02;51.83;;;23.73;;
7191;SDS011;3637;51.494;11.958;2024-01-10T09:09:07;57.73;;;24.37;;
7191;SDS011;3637;51.494;11.958;2024-01-10T09:12:09;51.93;;;22.87;;
7191;SDS011;3637;51.494;11.958;2024-01-10T09:15:19;56.87;;;25.43;;
7191;SDS011;3637;51.494;11.958;2024-01-10T09:18:30;50.97;;;24.13;;
7191;SDS011;3637;51.494;11.958;2024-01-10T09:25:11;50.37;;;23.77;;
7191;SDS011;3637;51.494;11.958;2024-01-10T09:28:18;57.23;;;25.07;;
7191;SDS011;3637;51.494;11.958;2024-01-10T09:31:23;59.33;;;25.03;;
7191;SDS011;3637;51.494;11.958;2024-01-10T09:34:25;53.77;;;23.53;;
7191;SDS011;3637;51.494;11.958;2024-01-10T09:37:33;54.63;;;25.93;;
7191;SDS011;3637;51.494;11.958;2024-01-10T09:40:40;46.60;;;25.43;;
7191;SDS011;3637;51.494;11.958;2024-01-10T09:43:43;62.87;;;28.07;;
7191;SDS011;3637;51.494;11.958;2024-01-10T09:47:08;61.73;;;27.40;;
7191;SDS011;3637;51.494;11.958;2024-01-10T09:50:16;58.37;;;26.33;;
7191;SDS011;3637;51.494;11.958;2024-01-10T09:53:24;48.33;;;23.57;;
7191;SDS011;3637;51.494;11.958;2024-01-10T09:56:38;52.53;;;24.97;;
7191;SDS011;3637;51.494;11.958;2024-01-10T09:59:44;51.73;;;25.13;;
7191;SDS011;3637;51.494;11.958;2024-01-10T10:02:47;50.70;;;24.50;;
7191;SDS011;3637;51.494;11.958;2024-01-10T10:05:54;54.47;;;25.87;;
7191;SDS011;3637;51.494;11.958;2024-01-10T10:09:03;57.50;;;26.33;;
7191;SDS011;3637;51.494;11.958;2024-01-10T10:12:09;51.07;;;25.40;;
7191;SDS011;3637;51.494;11.958;2024-01-10T10:15:15;52.17;;;25.13;;
7191;SDS011;3637;51.494;11.958;2024-01-10T10:18:31;49.60;;;23.93;;
7191;SDS011;3637;51.494;11.958;2024-01-10T10:21:33;55.47;;;25.00;;
7191;SDS011;3637;51.494;11.958;2024-01-10T10:24:38;55.70;;;24.80;;
7191;SDS011;3637;51.494;11.958;2024-01-10T10:27:44;53.13;;;25.27;;
7191;SDS011;3637;51.494;11.958;2024-01-10T10:30:51;49.73;;;23.67;;
7191;SDS011;3637;51.494;11.958;2024-01-10T10:33:56;52.27;;;25.13;;
7191;SDS011;3637;51.494;11.958;2024-01-10T10:37:02;51.70;;;24.77;;
7191;SDS011;3637;51.494;11.958;2024-01-10T10:40:13;51.67;;;25.20;;
7191;SDS011;3637;51.494;11.958;2024-01-10T10:43:24;52.07;;;26.37;;
7191;SDS011;3637;51.494;11.958;2024-01-10T10:46:27;44.87;;;24.93;;
7191;SDS011;3637;51.494;11.958;2024-01-10T10:49:31;49.80;;;25.40;;
7191;SDS011;3637;51.494;11.958;2024-01-10T10:52:39;54.37;;;25.40;;
7191;SDS011;3637;51.494;11.958;2024-01-10T10:55:58;52.67;;;24.93;;
7191;SDS011;3637;51.494;11.958;2024-01-10T10:59:06;52.43;;;26.23;;
7191;SDS011;3637;51.494;11.958;2024-01-10T11:02:16;52.07;;;25.87;;
7191;SDS011;3637;51.494;11.958;2024-01-10T11:05:24;56.27;;;27.30;;
7191;SDS011;3637;51.494;11.958;2024-01-10T11:08:38;53.03;;;25.23;;
7191;SDS011;3637;51.494;11.958;2024-01-10T11:12:00;54.50;;;25.50;;
7191;SDS011;3637;51.494;11.958;2024-01-10T11:15:20;51.60;;;24.60;;
7191;SDS011;3637;51.494;11.958;2024-01-10T11:18:40;46.17;;;24.70;;
7191;SDS011;3637;51.494;11.958;2024-01-10T11:22:07;52.90;;;25.90;;
7191;SDS011;3637;51.494;11.958;2024-01-10T11:25:22;44.50;;;23.37;;
7191;SDS011;3637;51.494;11.958;2024-01-10T11:28:37;54.20;;;25.83;;
7191;SDS011;3637;51.494;11.958;2024-01-10T11:31:50;50.10;;;24.53;;
7191;SDS011;3637;51.494;11.958;2024-01-10T11:34:57;47.50;;;25.33;;
7191;SDS011;3637;51.494;11.958;2024-01-10T11:38:02;47.43;;;26.97;;
7191;SDS011;3637;51.494;11.958;2024-01-10T11:41:10;49.80;;;25.90;;
7191;SDS011;3637;51.494;11.958;2024-01-10T11:44:28;49.20;;;26.13;;
7191;SDS011;3637;51.494;11.958;2024-01-10T11:47:31;46.83;;;25.60;;
7191;SDS011;3637;51.494;11.958;2024-01-10T11:50:35;51.87;;;26.97;;
7191;SDS011;3637;51.494;11.958;2024-01-10T11:53:44;49.33;;;27.30;;
7191;SDS011;3637;51.494;11.958;2024-01-10T11:56:50;51.00;;;29.03;;
7191;SDS011;3637;51.494;11.958;2024-01-10T12:00:02;55.37;;;29.70;;
7191;SDS011;3637;51.494;11.958;2024-01-10T12:03:09;50.10;;;27.43;;
7191;SDS011;3637;51.494;11.958;2024-01-10T12:06:13;48.60;;;26.63;;
7191;SDS011;3637;51.494;11.958;2024-01-10T12:09:25;50.93;;;27.50;;
7191;SDS011;3637;51.494;11.958;2024-01-10T12:12:45;56.20;;;28.20;;
7191;SDS011;3637;51.494;11.958;2024-01-10T12:16:09;52.37;;;27.87;;
7191;SDS011;3637;51.494;11.958;2024-01-10T12:19:14;51.13;;;27.13;;
7191;SDS011;3637;51.494;11.958;2024-01-10T12:22:16;54.60;;;27.07;;
7191;SDS011;3637;51.494;11.958;2024-01-10T12:25:18;56.27;;;27.63;;
7191;SDS011;3637;51.494;11.958;2024-01-10T12:28:20;53.60;;;27.30;;
7191;SDS011;3637;51.494;11.958;2024-01-10T12:31:24;48.73;;;26.73;;
7191;SDS011;3637;51.494;11.958;2024-01-10T12:34:28;48.90;;;27.70;;
7191;SDS011;3637;51.494;11.958;2024-01-10T12:37:31;51.17;;;27.07;;
7191;SDS011;3637;51.494;11.958;2024-01-10T12:40:34;56.43;;;27.50;;
7191;SDS011;3637;51.494;11.958;2024-01-10T12:43:37;51.00;;;26.60;;
7191;SDS011;3637;51.494;11.958;2024-01-10T12:46:50;53.67;;;27.63;;
7191;SDS011;3637;51.494;11.958;2024-01-10T12:49:53;47.50;;;26.83;;
7191;SDS011;3637;51.494;11.958;2024-01-10T12:52:55;55.83;;;28.37;;
7191;SDS011;3637;51.494;11.958;2024-01-10T12:55:58;54.90;;;27.00;;
7191;SDS011;3637;51.494;11.958;2024-01-10T12:59:07;49.80;;;25.83;;
7191;SDS011;3637;51.494;11.958;2024-01-10T13:02:16;52.60;;;26.63;;
7191;SDS011;3637;51.494;11.958;2024-01-10T13:05:19;51.43;;;27.57;;
7191;SDS011;3637;51.494;11.958;2024-01-10T13:08:23;54.67;;;27.20;;
7191;SDS011;3637;51.494;11.958;2024-01-10T13:11:28;49.77;;;26.87;;
7191;SDS011;3637;51.494;11.958;2024-01-10T13:14:34;56.57;;;27.93;;
7191;SDS011;3637;51.494;11.958;2024-01-10T13:17:45;51.83;;;26.93;;
7191;SDS011;3637;51.494;11.958;2024-01-10T13:20:48;54.87;;;27.60;;
7191;SDS011;3637;51.494;11.958;2024-01-10T13:23:50;51.03;;;27.43;;
7191;SDS011;3637;51.494;11.958;2024-01-10T13:26:52;45.63;;;25.87;;
7191;SDS011;3637;51.494;11.958;2024-01-10T13:29:54;50.73;;;26.13;;
7191;SDS011;3637;51.494;11.958;2024-01-10T13:32:58;53.50;;;25.77;;
7191;SDS011;3637;51.494;11.958;2024-01-10T13:36:02;53.27;;;26.47;;
7191;SDS011;3637;51.494;11.958;2024-01-10T13:39:05;52.20;;;27.13;;
7191;SDS011;3637;51.494;11.958;2024-01-10T13:42:11;50.13;;;24.87;;
7191;SDS011;3637;51.494;11.958;2024-01-10T13:45:14;56.00;;;26.57;;
7191;SDS011;3637;51.494;11.958;2024-01-10T13:48:22;48.27;;;25.33;;
7191;SDS011;3637;51.494;11.958;2024-01-10T13:51:24;53.10;;;25.80;;
7191;SDS011;3637;51.494;11.958;2024-01-10T13:54:36;51.83;;;26.13;;
7191;SDS011;3637;51.494;11.958;2024-01-10T13:57:39;52.07;;;26.70;;
7191;SDS011;3637;51.494;11.958;2024-01-10T14:00:41;52.83;;;24.50;;
7191;SDS011;3637;51.494;11.958;2024-01-10T14:03:45;50.83;;;25.10;;
7191;SDS011;3637;51.494;11.958;2024-01-10T14:06:47;51.07;;;25.67;;
7191;SDS011;3637;51.494;11.958;2024-01-10T14:09:51;49.80;;;26.60;;
7191;SDS011;3637;51.494;11.958;2024-01-10T14:13:12;56.10;;;27.80;;
7191;SDS011;3637;51.494;11.958;2024-01-10T14:16:17;53.43;;;26.03;;
7191;SDS011;3637;51.494;11.958;2024-01-10T14:19:22;54.40;;;27.37;;
7191;SDS011;3637;51.494;11.958;2024-01-10T14:22:25;52.07;;;26.93;;
7191;SDS011;3637;51.494;11.958;2024-01-10T14:25:28;54.07;;;27.70;;
7191;SDS011;3637;51.494;11.958;2024-01-10T14:28:31;57.10;;;27.60;;
7191;SDS011;3637;51.494;11.958;2024-01-10T14:31:34;61.43;;;29.60;;
7191;SDS011;3637;51.494;11.958;2024-01-10T14:34:40;57.03;;;28.23;;
7191;SDS011;3637;51.494;11.958;2024-01-10T14:37:45;58.10;;;28.50;;
7191;SDS011;3637;51.494;11.958;2024-01-10T14:40:47;49.60;;;26.57;;
7191;SDS011;3637;51.494;11.958;2024-01-10T14:43:50;51.00;;;24.63;;
7191;SDS011;3637;51.494;11.958;2024-01-10T14:46:58;58.10;;;27.93;;
7191;SDS011;3637;51.494;11.958;2024-01-10T14:50:11;54.80;;;27.90;;
7191;SDS011;3637;51.494;11.958;2024-01-10T14:53:15;54.03;;;29.10;;
7191;SDS011;3637;51.494;11.958;2024-01-10T14:56:17;55.77;;;29.60;;
7191;SDS011;3637;51.494;11.958;2024-01-10T14:59:19;60.07;;;29.20;;
7191;SDS011;3637;51.494;11.958;2024-01-10T15:02:24;57.30;;;28.73;;
7191;SDS011;3637;51.494;11.958;2024-01-10T15:05:28;52.57;;;27.60;;
7191;SDS011;3637;51.494;11.958;2024-01-10T15:08:30;62.67;;;28.50;;
7191;SDS011;3637;51.494;11.958;2024-01-10T15:11:34;59.83;;;29.20;;
7191;SDS011;3637;51.494;11.958;2024-01-10T15:14:36;60.43;;;29.40;;
7191;SDS011;3637;51.494;11.958;2024-01-10T15:17:42;57.73;;;28.23;;
7191;SDS011;3637;51.494;11.958;2024-01-10T15:20:45;69.27;;;33.37;;
7191;SDS011;3637;51.494;11.958;2024-01-10T15:23:51;127.60;;;51.43;;
7191;SDS011;3637;51.494;11.958;2024-01-10T15:26:53;66.27;;;30.93;;
7191;SDS011;3637;51.494;11.958;2024-01-10T15:29:56;56.73;;;29.73;;
7191;SDS011;3637;51.494;11.958;2024-01-10T15:32:58;61.37;;;29.40;;
7191;SDS011;3637;51.494;11.958;2024-01-10T15:36:15;63.03;;;29.63;;
7191;SDS011;3637;51.494;11.958;2024-01-10T15:39:19;62.97;;;29.23;;
7191;SDS011;3637;51.494;11.958;2024-01-10T15:42:21;61.03;;;29.87;;
7191;SDS011;3637;51.494;11.958;2024-01-10T15:45:24;66.40;;;31.40;;
7191;SDS011;3637;51.494;11.958;2024-01-10T15:48:27;56.07;;;29.93;;
7191;SDS011;3637;51.494;11.958;2024-01-10T15:51:33;62.73;;;28.93;;
7191;SDS011;3637;51.494;11.958;2024-01-10T15:54:36;63.97;;;29.27;;
7191;SDS011;3637;51.494;11.958;2024-01-10T15:57:40;58.17;;;30.57;;
7191;SDS011;3637;51.494;11.958;2024-01-10T16:00:46;64.93;;;29.03;;
7191;SDS011;3637;51.494;11.958;2024-01-10T16:03:48;59.90;;;29.90;;
7191;SDS011;3637;51.494;11.958;2024-01-10T16:06:53;65.07;;;30.83;;
7191;SDS011;3637;51.494;11.958;2024-01-10T16:09:58;67.23;;;32.17;;
7191;SDS011;3637;51.494;11.958;2024-01-10T16:13:03;66.87;;;30.17;;
7191;SDS011;3637;51.494;11.958;2024-01-10T16:16:12;70.33;;;32.37;;
7191;SDS011;3637;51.494;11.958;2024-01-10T16:19:17;66.97;;;32.47;;
7191;SDS011;3637;51.494;11.958;2024-01-10T16:22:28;70.30;;;31.87;;
7191;SDS011;3637;51.494;11.958;2024-01-10T16:25:30;65.97;;;31.70;;
7191;SDS011;3637;51.494;11.958;2024-01-10T16:28:38;67.50;;;30.97;;
7191;SDS011;3637;51.494;11.958;2024-01-10T16:31:40;68.53;;;30.67;;
7191;SDS011;3637;51.494;11.958;2024-01-10T16:34:46;80.27;;;34.40;;
7191;SDS011;3637;51.494;11.958;2024-01-10T16:37:55;64.10;;;30.40;;
7191;SDS011;3637;51.494;11.958;2024-01-10T16:40:58;60.27;;;30.97;;
7191;SDS011;3637;51.494;11.958;2024-01-10T16:44:00;67.13;;;29.00;;
7191;SDS011;3637;51.494;11.958;2024-01-10T16:47:02;67.90;;;30.40;;
7191;SDS011;3637;51.494;11.958;2024-01-10T16:50:12;62.23;;;28.40;;
7191;SDS011;3637;51.494;11.958;2024-01-10T16:53:20;64.57;;;30.13;;
7191;SDS011;3637;51.494;11.958;2024-01-10T16:56:26;59.83;;;29.97;;
7191;SDS011;3637;51.494;11.958;2024-01-10T16:59:28;62.30;;;30.60;;
7191;SDS011;3637;51.494;11.958;2024-01-10T17:02:36;64.10;;;30.47;;
7191;SDS011;3637;51.494;11.958;2024-01-10T17:05:39;63.43;;;29.73;;
7191;SDS011;3637;51.494;11.958;2024-01-10T17:08:53;71.90;;;32.10;;
7191;SDS011;3637;51.494;11.958;2024-01-10T17:11:55;65.03;;;30.63;;
7191;SDS011;3637;51.494;11.958;2024-01-10T17:14:57;61.37;;;28.80;;
7191;SDS011;3637;51.494;11.958;2024-01-10T17:18:01;67.27;;;30.77;;
7191;SDS011;3637;51.494;11.958;2024-01-10T17:21:10;70.50;;;33.03;;
7191;SDS011;3637;51.494;11.958;2024-01-10T17:24:14;69.63;;;32.17;;
7191;SDS011;3637;51.494;11.958;2024-01-10T17:27:16;67.03;;;31.27;;
7191;SDS011;3637;51.494;11.958;2024-01-10T17:30:19;65.87;;;31.67;;
7191;SDS011;3637;51.494;11.958;2024-01-10T17:33:21;64.30;;;31.83;;
7191;SDS011;3637;51.494;11.958;2024-01-10T17:36:23;67.97;;;32.73;;
7191;SDS011;3637;51.494;11.958;2024-01-10T17:39:28;74.53;;;31.80;;
7191;SDS011;3637;51.494;11.958;2024-01-10T17:42:33;65.23;;;31.53;;
7191;SDS011;3637;51.494;11.958;2024-01-10T17:45:49;66.73;;;31.77;;
7191;SDS011;3637;51.494;11.958;2024-01-10T17:48:52;67.03;;;31.13;;
7191;SDS011;3637;51.494;11.958;2024-01-10T17:51:59;62.90;;;30.27;;
7191;SDS011;3637;51.494;11.958;2024-01-10T17:55:02;70.57;;;32.83;;
7191;SDS011;3637;51.494;11.958;2024-01-10T17:58:05;66.40;;;31.37;;
7191;SDS011;3637;51.494;11.958;2024-01-10T18:01:08;62.40;;;29.43;;
7191;SDS011;3637;51.494;11.958;2024-01-10T18:04:10;68.87;;;32.80;;
7191;SDS011;3637;51.494;11.958;2024-01-10T18:07:14;72.73;;;31.97;;
7191;SDS011;3637;51.494;11.958;2024-01-10T18:10:18;63.23;;;29.80;;
7191;SDS011;3637;51.494;11.958;2024-01-10T18:13:20;72.87;;;33.20;;
7191;SDS011;3637;51.494;11.958;2024-01-10T18:16:25;68.17;;;32.67;;
7191;SDS011;3637;51.494;11.958;2024-01-10T18:19:27;67.57;;;31.13;;
7191;SDS011;3637;51.494;11.958;2024-01-10T18:22:28;76.77;;;32.40;;
7191;SDS011;3637;51.494;11.958;2024-01-10T18:25:33;74.37;;;31.27;;
7191;SDS011;3637;51.494;11.958;2024-01-10T18:28:38;70.43;;;31.00;;
7191;SDS011;3637;51.494;11.958;2024-01-10T18:31:44;71.13;;;31.43;;
7191;SDS011;3637;51.494;11.958;2024-01-10T18:34:46;68.07;;;32.10;;
7191;SDS011;3637;51.494;11.958;2024-01-10T18:37:48;68.80;;;31.60;;